createdAt,value
2018-03-14T00:04:46.057Z,7.80
2018-03-14T00:09:49.492Z,7.90
2018-03-14T00:14:52.168Z,7.90
2018-03-14T00:19:54.814Z,7.60
2018-03-14T00:24:57.536Z,7.60
2018-03-14T00:30:00.305Z,7.80
2018-03-14T00:35:02.937Z,7.90
2018-03-14T00:40:05.579Z,7.90
2018-03-14T00:45:08.974Z,7.80
2018-03-14T00:50:11.716Z,7.80
2018-03-14T00:55:14.409Z,8.00
2018-03-14T01:00:17.844Z,7.80
2018-03-14T01:05:20.670Z,7.80
2018-03-14T01:10:23.363Z,7.50
2018-03-14T01:15:26.103Z,7.70
2018-03-14T01:20:28.841Z,7.70
2018-03-14T01:25:31.492Z,7.70
2018-03-14T01:30:34.153Z,7.60
2018-03-14T01:35:36.830Z,7.50
2018-03-14T01:40:39.551Z,7.50
2018-03-14T01:45:42.360Z,7.60
2018-03-14T01:50:45.040Z,7.60
2018-03-14T01:55:47.760Z,7.80
2018-03-14T02:00:50.583Z,7.70
2018-03-14T02:05:53.364Z,7.70
2018-03-14T02:10:56.053Z,7.90
2018-03-14T02:15:58.872Z,7.50
2018-03-14T02:21:01.679Z,7.40
2018-03-14T02:26:04.366Z,7.40
2018-03-14T02:31:07.080Z,7.40
2018-03-14T02:36:09.838Z,7.60
2018-03-14T02:41:12.679Z,7.40
2018-03-14T02:46:15.370Z,7.40
2018-03-14T02:51:18.743Z,7.50
2018-03-14T02:56:21.441Z,7.50
2018-03-14T03:01:24.195Z,7.50
2018-03-14T03:06:26.874Z,7.50
2018-03-14T03:11:29.608Z,7.50
2018-03-14T03:16:32.391Z,7.60
2018-03-14T03:21:35.858Z,7.80
2018-03-14T03:26:38.639Z,7.80
2018-03-14T03:31:41.347Z,7.90
2018-03-14T03:36:44.126Z,7.80
2018-03-14T03:41:46.825Z,7.80
2018-03-14T03:46:49.639Z,7.90
2018-03-14T03:51:52.330Z,8.00
2018-03-14T03:56:54.985Z,8.10
2018-03-14T04:01:57.565Z,8.10
2018-03-14T04:07:00.361Z,8.30
2018-03-14T04:12:03.133Z,8.20
2018-03-14T04:17:05.796Z,8.30
2018-03-14T04:22:08.738Z,8.30
2018-03-14T04:27:11.521Z,8.30
2018-03-14T04:32:14.238Z,8.20
2018-03-14T04:37:17.860Z,8.00
2018-03-14T04:42:20.576Z,8.00
2018-03-14T04:47:23.366Z,7.90
2018-03-14T04:52:26.091Z,7.80
2018-03-14T04:57:28.800Z,7.90
2018-03-14T05:02:31.499Z,7.90
2018-03-14T05:07:34.189Z,8.10
2018-03-14T05:12:36.975Z,8.30
2018-03-14T05:17:39.658Z,8.30
2018-03-14T05:22:44.078Z,8.40
2018-03-14T05:27:46.852Z,8.40
2018-03-14T05:32:49.561Z,8.50
2018-03-14T05:37:52.369Z,8.50
2018-03-14T05:42:55.427Z,8.30
2018-03-14T05:47:58.351Z,8.30
2018-03-14T05:53:01.235Z,8.30
2018-03-14T05:58:04.004Z,8.40
2018-03-14T06:03:06.851Z,8.30
2018-03-14T06:08:09.648Z,8.20
2018-03-14T06:13:13.115Z,8.20
2018-03-14T06:18:15.896Z,8.20
2018-03-14T06:23:18.575Z,8.10
2018-03-14T06:28:21.242Z,8.20
2018-03-14T06:33:23.919Z,7.90
2018-03-14T06:38:26.675Z,8.00
2018-03-14T06:43:29.485Z,8.20
2018-03-14T06:48:32.285Z,8.40
2018-03-14T06:53:34.867Z,8.40
2018-03-14T06:58:52.750Z,8.70
2018-03-14T07:04:07.690Z,8.70
2018-03-14T07:09:10.277Z,8.90
2018-03-14T07:14:15.528Z,8.80
2018-03-14T07:19:18.419Z,8.60
2018-03-14T07:24:21.005Z,8.60
2018-03-14T07:29:24.244Z,8.80
2018-03-14T07:34:29.931Z,9.10
2018-03-14T07:39:34.346Z,9.40
2018-03-14T07:44:36.972Z,9.00
2018-03-14T07:49:40.383Z,8.80
2018-03-14T07:54:43.409Z,8.60
2018-03-14T07:59:46.020Z,8.80
2018-03-14T08:04:49.449Z,9.60
2018-03-14T08:09:52.037Z,9.60
2018-03-14T08:14:56.321Z,9.60
2018-03-14T08:19:59.614Z,9.60
2018-03-14T08:25:04.916Z,9.90
2018-03-14T08:30:08.158Z,10.00
2018-03-14T08:35:12.104Z,9.80
2018-03-14T08:40:16.625Z,9.80
2018-03-14T08:45:19.209Z,9.60
2018-03-14T08:50:21.873Z,9.50
2018-03-14T08:55:24.552Z,9.40
2018-03-14T09:00:27.729Z,9.60
2018-03-14T09:05:31.186Z,9.80
2018-03-14T09:10:34.861Z,9.80
2018-03-14T09:15:38.100Z,12.50
2018-03-14T09:20:42.511Z,14.90
2018-03-14T09:25:45.122Z,15.70
2018-03-14T09:30:48.840Z,21.30
2018-03-14T09:35:51.688Z,21.20
2018-03-14T09:40:56.964Z,22.60
2018-03-14T09:45:59.917Z,23.40
2018-03-14T09:51:03.066Z,24.00
2018-03-14T09:56:06.221Z,23.30
2018-03-14T10:01:08.797Z,23.40
2018-03-14T10:06:12.133Z,23.30
2018-03-14T10:11:15.554Z,22.70
2018-03-14T10:16:18.130Z,21.20
2018-03-14T10:21:20.787Z,19.40
2018-03-14T10:26:24.173Z,17.20
2018-03-14T10:31:26.752Z,17.10
2018-03-14T10:36:29.324Z,16.20
2018-03-14T10:41:32.494Z,15.60
2018-03-14T10:46:35.076Z,15.30
2018-03-14T10:51:54.177Z,15.40
2018-03-14T10:56:56.774Z,14.50
2018-03-14T11:02:04.962Z,14.60
2018-03-14T11:07:07.555Z,15.50
2018-03-14T11:12:10.164Z,16.50
2018-03-14T11:17:12.960Z,16.70
2018-03-14T11:22:15.552Z,16.90
2018-03-14T11:27:18.749Z,16.70
2018-03-14T11:32:21.341Z,16.90
2018-03-14T11:37:24.697Z,16.90
2018-03-14T11:42:27.281Z,17.00
2018-03-14T11:47:29.983Z,17.50
2018-03-14T11:52:32.996Z,17.40
2018-03-14T11:57:35.880Z,18.10
2018-03-14T12:02:40.993Z,17.60
2018-03-14T12:07:44.665Z,17.80
2018-03-14T12:12:48.352Z,17.80
2018-03-14T12:17:51.560Z,17.90
2018-03-14T12:22:54.135Z,17.90
2018-03-14T12:27:56.860Z,17.80
2018-03-14T12:32:59.449Z,18.30
2018-03-14T12:38:02.040Z,18.80
2018-03-14T12:43:05.079Z,19.00
2018-03-14T12:48:08.880Z,19.30
2018-03-14T12:53:14.219Z,19.20
2018-03-14T12:58:17.071Z,19.00
2018-03-14T13:03:20.672Z,19.30
2018-03-14T13:08:24.024Z,19.60
2018-03-14T13:13:28.315Z,19.60
2018-03-14T13:18:33.574Z,19.80
2018-03-14T13:23:36.152Z,20.50
2018-03-14T13:28:53.473Z,21.00
2018-03-14T13:33:56.060Z,21.30
2018-03-14T13:38:58.648Z,21.00
2018-03-14T13:44:01.984Z,21.80
2018-03-14T13:49:06.347Z,21.80
2018-03-14T13:54:09.373Z,21.80
2018-03-14T13:59:12.609Z,22.00
2018-03-14T14:09:25.573Z,22.80
2018-03-14T14:14:29.977Z,23.30
2018-03-14T14:19:32.997Z,23.60
2018-03-14T14:24:35.573Z,23.30
2018-03-14T14:29:45.561Z,23.60
2018-03-14T14:34:48.162Z,23.50
2018-03-14T14:39:50.754Z,21.80
2018-03-14T14:44:53.781Z,21.10
2018-03-14T14:49:56.377Z,21.10
2018-03-14T14:55:00.444Z,22.00
2018-03-14T15:00:03.021Z,22.60
2018-03-14T15:05:05.609Z,22.80
2018-03-14T15:10:08.837Z,23.20
2018-03-14T15:15:11.426Z,23.50
2018-03-14T15:20:14.006Z,22.60
2018-03-14T15:25:16.905Z,21.10
2018-03-14T15:30:19.494Z,20.80
2018-03-14T15:35:22.773Z,20.90
2018-03-14T15:40:26.760Z,20.80
2018-03-14T15:45:32.300Z,20.80
2018-03-14T15:50:34.888Z,21.40
2018-03-14T15:55:39.403Z,20.80
2018-03-14T16:00:42.002Z,21.40
2018-03-14T16:05:44.864Z,21.80
2018-03-14T16:10:48.037Z,22.40
2018-03-14T16:15:51.377Z,22.40
2018-03-14T16:20:54.002Z,22.40
2018-03-14T16:25:57.044Z,22.10
2018-03-14T16:31:00.393Z,20.60
2018-03-14T16:36:02.984Z,20.60
2018-03-14T16:41:05.577Z,20.10
2018-03-14T16:46:08.925Z,20.40
2018-03-14T16:51:12.118Z,20.30
2018-03-14T16:56:14.833Z,20.00
2018-03-14T17:01:17.896Z,19.50
2018-03-14T17:06:20.817Z,19.20
2018-03-14T17:11:24.173Z,18.30
2018-03-14T17:16:26.761Z,18.30
2018-03-14T17:21:29.354Z,17.80
2018-03-14T17:26:32.212Z,17.50
2018-03-14T17:31:34.860Z,17.10
2018-03-14T17:36:38.657Z,16.80
2018-03-14T17:41:42.464Z,16.30
2018-03-14T17:46:47.150Z,15.90
2018-03-14T17:51:50.015Z,15.90
2018-03-14T17:56:53.043Z,15.60
2018-03-14T18:01:59.229Z,15.10
2018-03-14T18:07:02.606Z,14.80
2018-03-14T18:12:05.782Z,14.70
2018-03-14T18:17:11.560Z,14.60
2018-03-14T18:22:15.389Z,14.40
2018-03-14T18:27:19.371Z,14.20
2018-03-14T18:32:27.253Z,13.90
2018-03-14T18:37:31.613Z,13.60
2018-03-14T18:42:34.184Z,13.40
2018-03-14T18:47:37.120Z,13.30
2018-03-14T18:52:39.705Z,13.10
2018-03-14T18:57:42.954Z,12.90
2018-03-14T19:02:46.516Z,12.70
2018-03-14T19:07:51.435Z,12.60
2018-03-14T19:12:54.786Z,12.40
2018-03-14T19:17:57.364Z,12.40
2018-03-14T19:23:00.156Z,12.20
2018-03-14T19:28:03.961Z,12.20
2018-03-14T19:33:09.956Z,12.20
2018-03-14T19:38:13.364Z,12.10
2018-03-14T19:43:15.957Z,12.10
2018-03-14T19:48:18.530Z,11.90
2018-03-14T19:53:21.923Z,11.80
2018-03-14T19:58:27.263Z,11.70
2018-03-14T20:03:29.878Z,11.70
2018-03-14T20:08:32.606Z,11.90
2018-03-14T20:13:35.184Z,11.80
2018-03-14T20:18:38.345Z,11.60
2018-03-14T20:23:42.178Z,11.40
2018-03-14T20:33:57.981Z,11.30
2018-03-14T20:39:00.612Z,11.30
2018-03-14T20:44:03.201Z,11.30
2018-03-14T20:49:07.192Z,11.20
2018-03-14T20:54:10.308Z,11.10
2018-03-14T20:59:13.483Z,11.10
2018-03-14T21:04:16.867Z,10.80
2018-03-14T21:09:19.448Z,10.80
2018-03-14T21:14:22.778Z,10.80
2018-03-14T21:19:26.351Z,10.60
2018-03-14T21:24:28.958Z,10.40
2018-03-14T21:29:31.845Z,10.20
2018-03-14T21:34:35.189Z,10.00
2018-03-14T21:39:37.982Z,9.90
2018-03-14T21:44:41.709Z,10.00
2018-03-14T21:49:44.440Z,9.80
2018-03-14T21:54:47.203Z,9.60
2018-03-14T21:59:49.919Z,9.60
2018-03-14T22:04:53.964Z,9.40
2018-03-14T22:09:58.081Z,9.20
2018-03-14T22:15:01.588Z,9.00
2018-03-14T22:20:05.491Z,8.80
2018-03-14T22:25:08.242Z,8.70
2018-03-14T22:30:11.419Z,8.60
2018-03-14T22:35:14.230Z,8.50
2018-03-14T22:40:16.904Z,8.50
2018-03-14T22:45:20.922Z,8.50
2018-03-14T22:50:25.600Z,8.40
2018-03-14T22:55:28.797Z,8.40
2018-03-14T23:00:31.913Z,8.30
2018-03-14T23:05:35.281Z,8.40
2018-03-14T23:10:37.878Z,8.40
2018-03-14T23:15:43.052Z,8.30
2018-03-14T23:20:46.189Z,7.90
2018-03-14T23:25:49.351Z,7.50
2018-03-14T23:30:51.935Z,7.30
2018-03-14T23:35:54.514Z,7.30
2018-03-14T23:41:15.081Z,7.30
2018-03-14T23:46:17.669Z,7.30
2018-03-14T23:51:20.877Z,7.30
2018-03-14T23:56:23.473Z,7.30
